Time;durP1;ratioP1;P1;durP2;ratioP2;P2;SDS_P1;SDS_P2;PMS_P1;PMS_P2;Temp;Humidity;BMP_temperature;BMP_pressure;BME280_temperature;BME280_humidity;BME280_pressure;Samples;Min_cycle;Max_cycle;Signal;HPM_P1;HPM_P2
2021/09/22 00:01:51;;;;;;;7.60;6.90;;;14.50;98.30;;;;;;5050956;28;20232;-67
2021/09/22 00:04:17;;;;;;;8.10;7.40;;;14.50;98.30;;;;;;5051777;28;20232;-67
2021/09/22 00:06:42;;;;;;;6.80;6.30;;;14.50;98.10;;;;;;5052795;28;20189;-67
2021/09/22 00:09:08;;;;;;;8.10;7.50;;;14.50;97.90;;;;;;5055584;28;20197;-67
2021/09/22 00:11:34;;;;;;;7.57;7.00;;;14.40;98.20;;;;;;5054549;28;20316;-67
2021/09/22 00:13:59;;;;;;;7.70;7.10;;;14.40;98.00;;;;;;5055505;28;20174;-67
2021/09/22 00:16:25;;;;;;;7.53;6.83;;;14.40;98.20;;;;;;5037823;28;20177;-67
2021/09/22 00:18:51;;;;;;;7.53;6.87;;;14.40;98.20;;;;;;5054499;28;20178;-67
2021/09/22 00:21:17;;;;;;;6.90;6.20;;;14.40;98.20;;;;;;5055045;28;20595;-67
2021/09/22 00:23:42;;;;;;;6.60;6.10;;;14.50;98.10;;;;;;5034765;28;20623;-67
2021/09/22 00:26:08;;;;;;;6.77;6.20;;;14.30;98.20;;;;;;5035230;28;20188;-67
2021/09/22 00:28:35;;;;;;;6.63;6.00;;;14.40;98.40;;;;;;5034767;28;20205;-67
2021/09/22 00:31:00;;;;;;;6.40;5.80;;;14.30;98.70;;;;;;5035461;28;20187;-67
2021/09/22 00:33:26;;;;;;;6.17;5.67;;;14.30;98.10;;;;;;5035050;28;20420;-67
2021/09/22 00:35:52;;;;;;;7.10;6.50;;;14.30;97.90;;;;;;5034745;28;20215;-66
2021/09/22 00:38:18;;;;;;;6.63;6.03;;;14.30;97.90;;;;;;5051822;28;20179;-67
2021/09/22 00:40:43;;;;;;;6.23;5.73;;;14.30;98.00;;;;;;5036310;28;20176;-67
2021/09/22 00:43:09;;;;;;;6.53;6.03;;;14.20;98.10;;;;;;5055110;28;20177;-67
2021/09/22 00:45:35;;;;;;;7.70;5.80;;;14.20;98.30;;;;;;5046345;28;20221;-67
2021/09/22 00:48:01;;;;;;;6.60;6.10;;;14.20;98.50;;;;;;5074982;28;20176;-67
2021/09/22 00:50:26;;;;;;;6.37;5.87;;;14.20;98.40;;;;;;5074565;28;20275;-67
2021/09/22 00:52:52;;;;;;;6.87;6.27;;;14.20;98.30;;;;;;5060311;28;20209;-67
2021/09/22 00:55:18;;;;;;;6.90;6.40;;;14.20;98.10;;;;;;5054817;28;20190;-67
2021/09/22 00:57:48;;;;;;;6.93;6.40;;;14.30;98.20;;;;;;5054053;28;20409;-67
2021/09/22 01:00:14;;;;;;;9.63;6.50;;;14.20;98.00;;;;;;5054832;28;20189;-67
2021/09/22 01:02:40;;;;;;;7.10;6.50;;;14.10;97.90;;;;;;5052795;28;20463;-67
2021/09/22 01:05:06;;;;;;;7.43;6.50;;;14.10;97.90;;;;;;5055108;28;20435;-67
2021/09/22 01:07:32;;;;;;;6.20;5.70;;;14.10;97.90;;;;;;5055329;28;20248;-74
2021/09/22 01:09:58;;;;;;;6.70;6.10;;;14.10;98.00;;;;;;5054247;28;20456;-67
2021/09/22 01:12:24;;;;;;;6.17;5.67;;;14.10;98.00;;;;;;5054451;28;20422;-67
2021/09/22 01:14:49;;;;;;;5.87;5.37;;;14.10;97.70;;;;;;5054433;28;20186;-68
2021/09/22 01:17:21;;;;;;;6.50;5.87;;;14.10;98.00;;;;;;5054184;28;20182;-67
2021/09/22 01:19:47;;;;;;;7.13;5.50;;;14.10;98.00;;;;;;5053661;28;20553;-67
2021/09/22 01:22:17;;;;;;;6.10;5.50;;;14.00;98.00;;;;;;5063611;28;20419;-67
2021/09/22 01:24:44;;;;;;;8.63;6.10;;;14.00;98.10;;;;;;5073464;28;20181;-67
2021/09/22 01:27:09;;;;;;;5.83;5.07;;;14.00;97.80;;;;;;5074345;28;20404;-67
2021/09/22 01:29:36;;;;;;;5.73;5.27;;;14.00;97.80;;;;;;5073362;28;20458;-73
2021/09/22 01:32:02;;;;;;;5.87;5.37;;;14.00;97.70;;;;;;5074189;28;20208;-67
2021/09/22 01:34:28;;;;;;;5.73;5.20;;;13.90;97.80;;;;;;5074136;28;20409;-67
2021/09/22 01:36:53;;;;;;;6.30;5.70;;;14.00;97.80;;;;;;5071336;28;20425;-67
2021/09/22 01:39:19;;;;;;;6.40;5.90;;;14.00;97.90;;;;;;5073976;28;20187;-67
2021/09/22 01:41:45;;;;;;;6.20;5.70;;;13.90;97.90;;;;;;5066370;28;20230;-67
2021/09/22 01:44:10;;;;;;;10.80;6.27;;;13.80;98.00;;;;;;5053882;28;20181;-67
2021/09/22 01:46:36;;;;;;;5.83;5.33;;;13.80;98.10;;;;;;5037945;28;20252;-74
2021/09/22 01:49:02;;;;;;;6.97;6.27;;;13.70;98.20;;;;;;5016267;28;20209;-67
2021/09/22 01:51:28;;;;;;;6.93;6.30;;;13.80;98.50;;;;;;5037526;28;20643;-67
2021/09/22 01:53:53;;;;;;;5.80;5.30;;;13.80;98.60;;;;;;5052707;28;20423;-67
2021/09/22 01:56:19;;;;;;;6.17;5.67;;;13.80;98.50;;;;;;5036049;28;20174;-67
2021/09/22 01:58:45;;;;;;;5.80;5.30;;;13.80;98.40;;;;;;5052796;28;20191;-67
2021/09/22 02:01:13;;;;;;;6.43;5.83;;;13.80;99.60;;;;;;5053342;28;20229;-67
2021/09/22 02:03:40;;;;;;;7.10;6.50;;;13.80;99.50;;;;;;5052853;28;20177;-68
2021/09/22 02:06:06;;;;;;;6.00;5.50;;;13.90;98.90;;;;;;5051458;28;20894;-67
2021/09/22 02:08:32;;;;;;;8.00;6.70;;;13.80;98.40;;;;;;5033547;28;20456;-67
2021/09/22 02:10:59;;;;;;;6.90;6.23;;;13.80;98.10;;;;;;5032727;28;20516;-67
2021/09/22 02:13:25;;;;;;;7.57;6.87;;;13.80;97.90;;;;;;5016002;28;20406;-67
2021/09/22 02:15:51;;;;;;;6.70;6.10;;;13.80;98.00;;;;;;5014435;28;20427;-67
2021/09/22 02:18:16;;;;;;;6.53;5.93;;;13.80;98.40;;;;;;5033330;28;20178;-67
2021/09/22 02:20:42;;;;;;;6.90;6.30;;;13.70;98.40;;;;;;5032566;28;20178;-67
2021/09/22 02:23:08;;;;;;;7.40;6.70;;;13.80;98.40;;;;;;5051525;28;20234;-67
2021/09/22 02:25:33;;;;;;;8.77;6.77;;;13.70;98.00;;;;;;5053144;28;20197;-67
2021/09/22 02:27:59;;;;;;;7.73;7.13;;;13.70;97.90;;;;;;5051780;28;20267;-67
2021/09/22 02:30:25;;;;;;;6.30;5.80;;;13.70;97.80;;;;;;5035202;28;20245;-67
2021/09/22 02:32:51;;;;;;;7.80;7.13;;;13.60;97.80;;;;;;5052191;28;20177;-67
2021/09/22 02:35:17;;;;;;;7.30;6.80;;;13.70;98.20;;;;;;5035257;28;20184;-67
2021/09/22 02:37:43;;;;;;;7.60;7.00;;;13.60;98.40;;;;;;5051519;28;20411;-67
2021/09/22 02:40:13;;;;;;;8.07;7.37;;;13.60;98.30;;;;;;5052564;28;20465;-67
2021/09/22 02:42:40;;;;;;;7.23;6.53;;;13.60;98.20;;;;;;5052383;28;20396;-75
2021/09/22 02:45:07;;;;;;;7.07;6.47;;;13.60;98.20;;;;;;5052348;28;20907;-67
2021/09/22 02:47:32;;;;;;;7.33;6.70;;;13.60;98.20;;;;;;5052878;28;20397;-67
2021/09/22 02:49:58;;;;;;;7.63;7.03;;;13.60;98.30;;;;;;5051828;28;20948;-67
2021/09/22 02:52:24;;;;;;;7.37;6.77;;;13.60;98.20;;;;;;5038841;28;20186;-67
2021/09/22 02:54:50;;;;;;;8.00;7.30;;;13.60;98.10;;;;;;5014310;28;20461;-67
2021/09/22 02:57:15;;;;;;;6.97;6.37;;;13.50;98.10;;;;;;5032394;28;20177;-67
2021/09/22 02:59:41;;;;;;;10.37;6.43;;;13.60;98.20;;;;;;5031936;28;20533;-73
2021/09/22 03:02:07;;;;;;;7.20;6.70;;;13.60;98.00;;;;;;5032696;28;20174;-67
2021/09/22 03:04:33;;;;;;;7.50;6.90;;;13.60;98.00;;;;;;5032419;28;20680;-67
2021/09/22 03:06:58;;;;;;;8.50;7.80;;;13.50;97.90;;;;;;5023943;28;20507;-67
2021/09/22 03:09:24;;;;;;;7.90;7.30;;;13.50;98.10;;;;;;5052297;28;20204;-68
2021/09/22 03:11:51;;;;;;;8.17;7.57;;;13.50;98.00;;;;;;5051911;28;20181;-67
2021/09/22 03:14:17;;;;;;;7.43;6.83;;;13.50;98.10;;;;;;5021879;28;20173;-68
2021/09/22 03:16:43;;;;;;;7.70;7.10;;;13.50;98.20;;;;;;5031614;28;20420;-70
2021/09/22 03:19:08;;;;;;;9.70;7.77;;;13.50;97.90;;;;;;5032353;28;20474;-67
2021/09/22 03:21:34;;;;;;;8.03;7.33;;;13.50;97.90;;;;;;5039309;28;20180;-67
2021/09/22 03:24:00;;;;;;;8.13;7.33;;;13.50;97.80;;;;;;5051427;28;20167;-67
2021/09/22 03:26:26;;;;;;;8.23;7.43;;;13.50;98.00;;;;;;5034455;28;20181;-67
2021/09/22 03:28:52;;;;;;;7.70;7.00;;;13.50;98.20;;;;;;5051342;28;20212;-68
2021/09/22 03:31:18;;;;;;;8.00;7.30;;;13.50;98.00;;;;;;5051805;28;20506;-67
2021/09/22 03:33:44;;;;;;;7.20;6.60;;;13.50;97.80;;;;;;5051337;28;20420;-69
2021/09/22 03:36:11;;;;;;;7.43;6.73;;;13.50;97.90;;;;;;5051085;28;20180;-65
2021/09/22 03:38:36;;;;;;;8.00;7.20;;;13.40;97.70;;;;;;5052057;28;20506;-67
2021/09/22 03:41:03;;;;;;;7.33;6.73;;;13.40;97.80;;;;;;5053569;28;20668;-67
2021/09/22 03:43:30;;;;;;;8.40;7.70;;;13.40;97.90;;;;;;5055936;28;20185;-67
2021/09/22 03:45:55;;;;;;;7.83;7.13;;;13.40;97.90;;;;;;5055039;28;20483;-67
2021/09/22 03:48:21;;;;;;;8.40;7.43;;;13.40;97.90;;;;;;5056131;28;20420;-67
2021/09/22 03:50:48;;;;;;;9.23;8.33;;;13.40;98.00;;;;;;5053847;28;20195;-67
2021/09/22 03:53:16;;;;;;;8.73;8.00;;;13.30;97.90;;;;;;5036112;28;20220;-67
2021/09/22 03:55:45;;;;;;;8.43;7.70;;;13.30;97.80;;;;;;5035768;28;20397;-73
2021/09/22 03:58:11;;;;;;;9.10;8.30;;;13.30;97.80;;;;;;5036244;28;20416;-67
2021/09/22 04:00:37;;;;;;;9.10;8.17;;;13.30;97.80;;;;;;5035936;28;20554;-67
2021/09/22 04:03:02;;;;;;;9.40;8.60;;;13.30;98.10;;;;;;5035087;28;20476;-67
2021/09/22 04:05:28;;;;;;;9.23;8.33;;;13.30;98.20;;;;;;5035883;28;20642;-67
2021/09/22 04:07:54;;;;;;;9.90;8.03;;;13.30;98.40;;;;;;5053838;28;20189;-67
2021/09/22 04:10:20;;;;;;;10.00;7.50;;;13.30;98.40;;;;;;5055913;28;20220;-67
2021/09/22 04:12:45;;;;;;;9.17;8.30;;;13.30;98.30;;;;;;5054635;28;20629;-74
2021/09/22 04:15:11;;;;;;;8.00;7.30;;;13.30;98.30;;;;;;5055668;28;20271;-67
2021/09/22 04:17:37;;;;;;;8.67;7.87;;;13.30;98.00;;;;;;5055282;28;20209;-67
2021/09/22 04:20:04;;;;;;;9.80;7.50;;;13.30;98.10;;;;;;5054749;28;20877;-67
2021/09/22 04:22:30;;;;;;;10.43;8.47;;;13.30;98.20;;;;;;5038002;28;20273;-67
2021/09/22 04:24:56;;;;;;;7.70;7.00;;;13.20;98.50;;;;;;5034453;28;20495;-67
2021/09/22 04:27:22;;;;;;;10.07;9.10;;;13.20;98.40;;;;;;5035157;28;20503;-67
2021/09/22 04:29:47;;;;;;;8.47;7.67;;;13.20;98.10;;;;;;5034546;28;20221;-68
2021/09/22 04:32:13;;;;;;;8.60;7.90;;;13.20;98.10;;;;;;5035374;28;20239;-67
2021/09/22 04:34:39;;;;;;;9.03;8.23;;;13.10;98.10;;;;;;5035369;28;20176;-67
2021/09/22 04:37:05;;;;;;;8.27;7.50;;;13.20;98.00;;;;;;5034713;28;20182;-67
2021/09/22 04:39:30;;;;;;;9.60;8.70;;;13.10;98.00;;;;;;5035308;28;20546;-67
2021/09/22 04:41:56;;;;;;;8.93;8.07;;;13.10;98.10;;;;;;5034289;28;20208;-67
2021/09/22 04:44:22;;;;;;;8.90;8.10;;;13.10;98.00;;;;;;5035093;28;20415;-67
2021/09/22 04:46:48;;;;;;;8.87;8.17;;;13.10;98.10;;;;;;5034150;28;20243;-74
2021/09/22 04:49:13;;;;;;;8.57;7.90;;;13.10;98.20;;;;;;5034730;28;20221;-67
2021/09/22 04:51:39;;;;;;;11.07;10.00;;;13.10;98.20;;;;;;5034434;28;20199;-67
2021/09/22 04:54:05;;;;;;;10.80;9.80;;;13.10;98.20;;;;;;5032116;28;20174;-67
2021/09/22 04:56:31;;;;;;;10.07;9.17;;;13.10;98.50;;;;;;5054841;28;20176;-67
2021/09/22 04:58:56;;;;;;;10.80;9.80;;;13.10;98.40;;;;;;5036389;28;20291;-67
2021/09/22 05:01:22;;;;;;;10.70;9.80;;;13.10;98.60;;;;;;5044988;28;20327;-67
2021/09/22 05:03:48;;;;;;;9.83;8.83;;;13.10;98.80;;;;;;5034161;28;20188;-74
2021/09/22 05:06:13;;;;;;;11.50;10.00;;;13.10;98.60;;;;;;5035810;28;20221;-67
2021/09/22 05:08:39;;;;;;;9.50;8.60;;;13.10;99.00;;;;;;5017487;28;20216;-68
2021/09/22 05:11:05;;;;;;;10.87;9.97;;;13.10;98.80;;;;;;5034999;28;20361;-67
2021/09/22 05:13:30;;;;;;;10.33;9.33;;;13.10;98.50;;;;;;5016993;28;20183;-67
2021/09/22 05:15:56;;;;;;;10.27;9.20;;;13.10;98.40;;;;;;5033359;28;20176;-67
2021/09/22 05:18:22;;;;;;;9.50;8.60;;;13.10;98.40;;;;;;5034476;28;20181;-67
2021/09/22 05:20:48;;;;;;;10.13;8.60;;;13.10;98.50;;;;;;5042398;28;20177;-73
2021/09/22 05:23:13;;;;;;;11.17;10.07;;;13.10;98.70;;;;;;5054044;28;20191;-67
2021/09/22 05:25:39;;;;;;;11.53;10.43;;;13.10;98.80;;;;;;5054235;28;20600;-67
2021/09/22 05:28:05;;;;;;;10.47;9.50;;;13.10;98.90;;;;;;5035192;28;20180;-67
2021/09/22 05:30:31;;;;;;;11.40;10.30;;;13.10;98.80;;;;;;5054055;28;20201;-67
2021/09/22 05:32:57;;;;;;;11.27;10.17;;;13.10;98.70;;;;;;5053292;28;20189;-67
2021/09/22 05:35:23;;;;;;;11.77;9.93;;;13.10;98.70;;;;;;5049933;28;20968;-67
2021/09/22 05:37:49;;;;;;;13.20;10.47;;;13.10;98.70;;;;;;5033706;28;20423;-73
2021/09/22 05:40:14;;;;;;;11.70;9.60;;;13.20;98.80;;;;;;5020455;28;20442;-67
2021/09/22 05:42:40;;;;;;;10.47;9.57;;;13.20;98.80;;;;;;5053975;28;20528;-67
2021/09/22 05:45:06;;;;;;;10.07;9.07;;;13.20;98.70;;;;;;5053004;28;20255;-67
2021/09/22 05:47:32;;;;;;;9.87;8.83;;;13.20;98.80;;;;;;5035287;28;20189;-68
2021/09/22 05:49:58;;;;;;;9.80;8.90;;;13.20;99.00;;;;;;5046805;28;20962;-67
2021/09/22 05:52:23;;;;;;;12.80;9.47;;;13.20;98.90;;;;;;5047032;28;20270;-67
2021/09/22 05:54:50;;;;;;;11.57;9.40;;;13.20;99.00;;;;;;5053278;28;20183;-73
2021/09/22 05:57:16;;;;;;;10.07;9.17;;;13.30;99.10;;;;;;5035646;28;20173;-67
2021/09/22 05:59:41;;;;;;;11.17;10.07;;;13.30;99.00;;;;;;5053879;28;20885;-67
2021/09/22 06:02:08;;;;;;;12.30;10.47;;;13.30;99.00;;;;;;5050437;28;20546;-68
2021/09/22 06:04:33;;;;;;;10.47;9.47;;;13.30;99.20;;;;;;5053104;28;20586;-67
2021/09/22 06:06:59;;;;;;;9.70;8.80;;;13.40;99.20;;;;;;5048032;28;20427;-68
2021/09/22 06:09:25;;;;;;;12.20;10.53;;;13.70;99.40;;;;;;5033583;28;20225;-68
2021/09/22 06:11:51;;;;;;;11.70;9.80;;;13.90;99.20;;;;;;5032896;28;20467;-68
2021/09/22 06:14:16;;;;;;;10.90;9.80;;;14.20;99.10;;;;;;5043939;28;20212;-68
2021/09/22 06:16:42;;;;;;;11.53;10.30;;;14.40;98.50;;;;;;5042675;28;20519;-68
2021/09/22 06:19:09;;;;;;;12.17;9.80;;;14.60;97.80;;;;;;5036625;28;20476;-68
2021/09/22 06:21:36;;;;;;;10.73;9.63;;;14.70;97.20;;;;;;5047210;28;20228;-67
2021/09/22 06:24:02;;;;;;;10.97;9.87;;;14.80;97.00;;;;;;5053043;28;20732;-67
2021/09/22 06:26:28;;;;;;;11.97;10.07;;;14.90;96.70;;;;;;5047204;28;20509;-68
2021/09/22 06:28:54;;;;;;;11.00;10.00;;;15.00;96.30;;;;;;5038717;28;20214;-68
2021/09/22 06:31:20;;;;;;;12.23;11.03;;;15.00;95.80;;;;;;5042371;28;20510;-68
2021/09/22 06:33:46;;;;;;;12.50;10.77;;;15.00;95.40;;;;;;5048456;28;20464;-67
2021/09/22 06:36:11;;;;;;;12.27;11.07;;;15.00;95.10;;;;;;5043852;28;20422;-66
2021/09/22 06:38:37;;;;;;;10.93;9.83;;;14.90;95.40;;;;;;5015838;28;20171;-67
2021/09/22 06:41:04;;;;;;;11.40;10.30;;;14.70;95.60;;;;;;5046981;28;20179;-67
2021/09/22 06:43:30;;;;;;;12.17;10.97;;;14.70;96.30;;;;;;5053235;28;20252;-67
2021/09/22 06:45:55;;;;;;;12.50;11.10;;;14.50;96.80;;;;;;5050016;28;20510;-67
2021/09/22 06:48:21;;;;;;;12.43;10.53;;;14.40;97.00;;;;;;5072664;28;20188;-68
2021/09/22 06:50:47;;;;;;;13.23;11.70;;;14.30;97.10;;;;;;5073119;28;20185;-67
2021/09/22 06:53:14;;;;;;;12.40;11.20;;;14.20;97.10;;;;;;5066031;28;20941;-67
2021/09/22 06:55:40;;;;;;;11.47;10.27;;;14.20;97.50;;;;;;5071196;28;20489;-67
2021/09/22 06:58:06;;;;;;;12.70;11.50;;;14.20;97.60;;;;;;5072577;28;20404;-66
2021/09/22 07:00:35;;;;;;;12.53;10.93;;;14.10;97.80;;;;;;5072914;28;20422;-66
2021/09/22 07:03:01;;;;;;;12.07;9.57;;;14.10;98.10;;;;;;5053788;28;20426;-66
2021/09/22 07:05:27;;;;;;;11.80;10.60;;;14.10;98.50;;;;;;5058638;28;20827;-66
2021/09/22 07:07:53;;;;;;;13.77;11.70;;;14.00;98.60;;;;;;5051081;28;20411;-66
2021/09/22 07:10:19;;;;;;;13.50;11.77;;;14.10;98.60;;;;;;5052884;28;20498;-66
2021/09/22 07:12:45;;;;;;;15.23;12.03;;;14.10;98.80;;;;;;5060289;28;20173;-66
2021/09/22 07:15:11;;;;;;;14.00;12.77;;;14.00;99.00;;;;;;5070035;28;20706;-66
2021/09/22 07:17:37;;;;;;;14.53;13.10;;;14.00;99.00;;;;;;5071498;28;20400;-65
2021/09/22 07:20:04;;;;;;;15.90;11.47;;;14.10;99.10;;;;;;5071369;28;20807;-66
2021/09/22 07:22:30;;;;;;;13.57;11.47;;;14.10;99.00;;;;;;5072407;28;20537;-66
2021/09/22 07:24:55;;;;;;;12.33;10.50;;;14.10;99.20;;;;;;5056272;28;20508;-66
2021/09/22 07:27:22;;;;;;;13.00;11.73;;;14.10;99.60;;;;;;5061249;28;20218;-66
2021/09/22 07:29:47;;;;;;;15.40;11.40;;;14.10;99.70;;;;;;5067707;28;20205;-67
2021/09/22 07:32:13;;;;;;;12.80;11.37;;;14.10;99.10;;;;;;5053184;28;20429;-67
2021/09/22 07:34:40;;;;;;;17.33;14.30;;;14.10;99.40;;;;;;5052473;28;20261;-67
2021/09/22 07:37:12;;;;;;;13.20;12.00;;;14.20;99.90;;;;;;5051845;28;20758;-67
2021/09/22 07:39:40;;;;;;;14.57;11.57;;;14.20;99.90;;;;;;5069885;28;20404;-66
2021/09/22 07:42:11;;;;;;;14.50;12.83;;;14.30;99.90;;;;;;5055065;28;20424;-67
2021/09/22 07:44:41;;;;;;;13.80;11.80;;;14.30;99.90;;;;;;5054896;28;20994;-67
2021/09/22 07:47:07;;;;;;;14.20;12.70;;;14.40;99.90;;;;;;5041281;28;21024;-67
2021/09/22 07:49:33;;;;;;;14.03;12.60;;;14.40;99.90;;;;;;5031988;28;20458;-67
2021/09/22 07:51:59;;;;;;;13.30;11.90;;;14.50;99.90;;;;;;5037134;28;20199;-67
2021/09/22 07:54:25;;;;;;;13.40;11.83;;;14.50;99.90;;;;;;5040072;28;20954;-67
2021/09/22 07:56:51;;;;;;;14.07;12.43;;;14.60;99.90;;;;;;5032223;28;20254;-67
2021/09/22 07:59:16;;;;;;;15.73;13.47;;;14.70;99.90;;;;;;5038126;28;20526;-66
2021/09/22 08:01:42;;;;;;;14.93;13.37;;;14.70;99.90;;;;;;5051926;28;20188;-67
2021/09/22 08:04:08;;;;;;;13.37;12.07;;;14.80;99.70;;;;;;5033026;28;20194;-67
2021/09/22 08:06:33;;;;;;;15.33;13.33;;;14.90;99.90;;;;;;5033284;28;20173;-67
2021/09/22 08:08:59;;;;;;;14.87;12.60;;;15.00;99.90;;;;;;5034585;28;20211;-67
2021/09/22 08:11:25;;;;;;;18.17;13.37;;;15.00;99.90;;;;;;5051928;28;20600;-67
2021/09/22 08:13:50;;;;;;;14.00;12.60;;;15.10;99.90;;;;;;5045976;28;20188;-67
2021/09/22 08:16:16;;;;;;;14.80;13.27;;;15.20;99.70;;;;;;5031528;28;20185;-67
2021/09/22 08:18:45;;;;;;;14.60;12.70;;;15.20;99.80;;;;;;5039672;28;20181;-67
2021/09/22 08:21:15;;;;;;;15.70;13.43;;;15.30;99.90;;;;;;5043723;28;20176;-66
2021/09/22 08:23:41;;;;;;;18.20;13.23;;;15.40;99.90;;;;;;5040571;28;20432;-67
2021/09/22 08:26:09;;;;;;;14.90;13.30;;;15.40;99.90;;;;;;5032088;28;20423;-67
2021/09/22 08:28:34;;;;;;;16.63;13.57;;;15.50;99.80;;;;;;5035282;28;20399;-66
2021/09/22 08:31:01;;;;;;;16.90;14.40;;;15.50;99.50;;;;;;5034642;28;20410;-70
2021/09/22 08:33:27;;;;;;;17.50;15.00;;;15.60;99.40;;;;;;5035836;28;20181;-66
2021/09/22 08:35:53;;;;;;;19.10;14.53;;;15.70;99.50;;;;;;5035969;28;20427;-66
2021/09/22 08:38:18;;;;;;;17.10;14.07;;;15.80;99.30;;;;;;5035368;28;20219;-66
2021/09/22 08:40:44;;;;;;;17.40;14.83;;;15.90;98.60;;;;;;5035860;28;20224;-66
2021/09/22 08:43:14;;;;;;;21.00;13.53;;;15.90;98.20;;;;;;5017319;28;20979;-67
2021/09/22 08:45:41;;;;;;;17.47;14.73;;;16.00;98.50;;;;;;5029031;28;20462;-66
2021/09/22 08:48:09;;;;;;;20.23;14.80;;;16.10;99.10;;;;;;5053669;28;20441;-67
2021/09/22 08:50:35;;;;;;;21.43;16.97;;;16.20;99.30;;;;;;5055328;28;20462;-67
2021/09/22 08:53:01;;;;;;;18.20;15.50;;;16.40;99.20;;;;;;5054721;28;20404;-67
2021/09/22 08:55:27;;;;;;;20.13;16.00;;;16.40;97.60;;;;;;5055309;28;20485;-66
2021/09/22 08:57:53;;;;;;;21.40;15.37;;;16.40;98.10;;;;;;5055267;28;20408;-67
2021/09/22 09:00:19;;;;;;;19.77;15.93;;;16.50;97.50;;;;;;5054619;28;20199;-67
2021/09/22 09:02:46;;;;;;;24.63;16.13;;;16.60;98.10;;;;;;5054844;28;20261;-66
2021/09/22 09:05:18;;;;;;;20.77;16.10;;;16.90;98.50;;;;;;5054341;28;20182;-67
2021/09/22 09:07:50;;;;;;;18.70;16.33;;;16.90;98.60;;;;;;5055039;28;20406;-67
2021/09/22 09:10:16;;;;;;;24.67;17.10;;;17.10;98.80;;;;;;5054694;28;20501;-67
2021/09/22 09:12:42;;;;;;;20.93;17.10;;;17.30;99.10;;;;;;5054934;28;20404;-67
2021/09/22 09:15:13;;;;;;;17.90;15.97;;;17.40;99.50;;;;;;5054011;28;20917;-67
2021/09/22 09:17:47;;;;;;;19.60;17.10;;;17.70;99.70;;;;;;5054766;28;20537;-67
2021/09/22 09:20:17;;;;;;;19.07;16.17;;;17.80;98.70;;;;;;5053963;28;20408;-67
2021/09/22 09:23:00;;;;;;;17.90;15.97;;;18.00;98.80;;;;;;5054818;28;20510;-67
2021/09/22 09:25:28;;;;;;;18.30;16.40;;;18.20;99.00;;;;;;5054529;28;20490;-67
2021/09/22 09:27:54;;;;;;;17.23;14.10;;;18.40;99.20;;;;;;5053534;28;20412;-67
2021/09/22 09:30:24;;;;;;;16.33;14.60;;;18.50;98.30;;;;;;5053911;28;20459;-67
2021/09/22 09:32:51;;;;;;;17.20;15.50;;;18.70;98.80;;;;;;5054579;28;20911;-67
2021/09/22 09:35:24;;;;;;;15.93;14.33;;;18.90;98.50;;;;;;5053964;28;20416;-67
2021/09/22 09:37:55;;;;;;;17.17;15.40;;;19.10;97.80;;;;;;5052079;28;20483;-67
2021/09/22 09:40:24;;;;;;;18.27;15.90;;;19.40;96.50;;;;;;5053932;28;20475;-67
2021/09/22 09:42:56;;;;;;;18.47;16.63;;;19.60;96.70;;;;;;5054464;28;20405;-67
2021/09/22 09:45:23;;;;;;;15.60;14.10;;;19.80;96.10;;;;;;5048833;28;20471;-67
2021/09/22 09:47:59;;;;;;;18.97;17.00;;;19.90;95.20;;;;;;5034489;28;20758;-67
2021/09/22 09:50:25;;;;;;;16.43;14.80;;;20.00;94.40;;;;;;5033949;28;20964;-67
2021/09/22 09:52:53;;;;;;;17.73;14.23;;;20.10;94.30;;;;;;5034186;28;20435;-67
2021/09/22 09:55:20;;;;;;;16.20;14.60;;;20.20;94.80;;;;;;5033664;28;20178;-67
2021/09/22 09:57:50;;;;;;;15.03;13.53;;;20.30;94.50;;;;;;5034216;28;20397;-67
2021/09/22 10:00:20;;;;;;;15.90;14.23;;;20.50;94.10;;;;;;5033789;28;20479;-67
2021/09/22 10:02:46;;;;;;;15.00;13.40;;;20.70;94.10;;;;;;5034207;28;20901;-67
2021/09/22 10:05:12;;;;;;;14.13;12.73;;;20.90;93.40;;;;;;5033518;28;20803;-67
2021/09/22 10:07:39;;;;;;;16.33;14.83;;;21.20;93.00;;;;;;5016308;28;20406;-67
2021/09/22 10:10:06;;;;;;;14.20;12.80;;;21.40;92.20;;;;;;5033213;28;20605;-67
2021/09/22 10:12:33;;;;;;;13.50;12.20;;;21.60;91.70;;;;;;5033858;28;20911;-67
2021/09/22 10:15:00;;;;;;;19.60;14.30;;;21.90;91.00;;;;;;5033938;28;20774;-67
2021/09/22 10:17:30;;;;;;;13.77;12.50;;;22.10;90.30;;;;;;5032997;28;20436;-67
2021/09/22 10:19:59;;;;;;;13.10;11.90;;;22.20;88.40;;;;;;5033705;28;20411;-67
2021/09/22 10:22:24;;;;;;;14.07;12.67;;;22.20;88.00;;;;;;5015546;28;20463;-67
2021/09/22 10:24:51;;;;;;;15.77;13.67;;;22.30;87.20;;;;;;5033626;28;20417;-67
2021/09/22 10:27:18;;;;;;;13.63;12.20;;;22.30;88.00;;;;;;5033033;28;20178;-67
2021/09/22 10:30:02;;;;;;;13.13;11.83;;;22.40;86.80;;;;;;5033383;28;20495;-67
2021/09/22 10:32:48;;;;;;;13.20;12.00;;;22.50;86.50;;;;;;5033408;28;20386;-67
2021/09/22 10:35:26;;;;;;;12.13;11.03;;;22.60;86.00;;;;;;5032396;28;20389;-67
2021/09/22 10:37:59;;;;;;;12.33;10.83;;;22.70;85.90;;;;;;5032646;28;20413;-67
2021/09/22 10:40:34;;;;;;;13.10;11.60;;;22.90;85.70;;;;;;5032864;28;20401;-67
2021/09/22 10:43:15;;;;;;;12.57;11.37;;;23.10;84.70;;;;;;5033344;28;20458;-67
2021/09/22 10:45:42;;;;;;;12.03;10.83;;;23.30;83.80;;;;;;5032875;28;20461;-67
2021/09/22 10:48:22;;;;;;;11.67;10.67;;;23.50;83.20;;;;;;5014481;28;20453;-67
2021/09/22 10:50:53;;;;;;;10.13;9.27;;;23.60;83.00;;;;;;5032357;28;20452;-67
2021/09/22 10:53:31;;;;;;;11.60;10.63;;;23.70;81.10;;;;;;5031282;28;20421;-67
2021/09/22 10:56:11;;;;;;;12.17;10.97;;;23.90;81.60;;;;;;5032725;28;20840;-67
2021/09/22 10:58:52;;;;;;;11.20;10.20;;;24.10;79.20;;;;;;5032372;28;20546;-67
2021/09/22 11:01:33;;;;;;;10.77;9.90;;;24.30;80.00;;;;;;5032323;28;20805;-67
2021/09/22 11:04:06;;;;;;;11.13;10.13;;;24.40;79.00;;;;;;5015415;28;20401;-67
2021/09/22 11:06:47;;;;;;;10.60;9.70;;;24.40;78.10;;;;;;5032978;28;20422;-67
2021/09/22 11:09:16;;;;;;;10.83;10.03;;;24.60;79.10;;;;;;5031986;28;20468;-67
2021/09/22 11:12:00;;;;;;;11.37;10.10;;;24.70;77.10;;;;;;5032400;28;20440;-67
2021/09/22 11:14:44;;;;;;;9.67;8.97;;;24.80;75.40;;;;;;5031392;28;20654;-67
2021/09/22 11:17:34;;;;;;;9.70;8.90;;;24.90;77.80;;;;;;5031820;28;20413;-67
2021/09/22 11:20:04;;;;;;;9.83;9.00;;;25.00;77.00;;;;;;5032778;28;20405;-67
2021/09/22 11:22:34;;;;;;;9.90;9.10;;;25.10;76.00;;;;;;5014345;28;20896;-67
2021/09/22 11:25:07;;;;;;;9.27;8.47;;;25.10;74.00;;;;;;5032655;28;20406;-67
2021/09/22 11:27:33;;;;;;;10.87;9.97;;;25.20;72.90;;;;;;5032744;28;20404;-67
2021/09/22 11:30:02;;;;;;;8.93;8.20;;;25.00;71.40;;;;;;5032470;28;20794;-67
2021/09/22 11:32:40;;;;;;;8.90;8.20;;;25.00;73.10;;;;;;5031960;28;20396;-67
2021/09/22 11:35:18;;;;;;;8.33;7.47;;;25.00;73.10;;;;;;5032618;28;20435;-67
2021/09/22 11:37:52;;;;;;;10.00;9.13;;;25.10;74.40;;;;;;5032685;28;20400;-67
2021/09/22 11:40:21;;;;;;;9.80;8.93;;;25.10;72.30;;;;;;5032049;28;20424;-67
2021/09/22 11:43:10;;;;;;;8.20;7.60;;;25.20;71.90;;;;;;5032357;28;20417;-67
2021/09/22 11:45:37;;;;;;;8.50;7.80;;;25.20;72.30;;;;;;5032299;28;20483;-67
2021/09/22 11:48:04;;;;;;;9.13;8.33;;;25.30;70.80;;;;;;5032333;28;20421;-67
2021/09/22 11:50:35;;;;;;;9.17;8.47;;;25.20;69.60;;;;;;5031774;28;20456;-67
2021/09/22 11:53:02;;;;;;;9.13;8.47;;;25.20;69.30;;;;;;5032550;28;20778;-67
2021/09/22 11:55:28;;;;;;;8.60;7.80;;;25.20;70.00;;;;;;5031778;28;20632;-67
2021/09/22 11:57:54;;;;;;;8.70;8.00;;;25.20;70.40;;;;;;5014665;28;20405;-67
2021/09/22 12:00:23;;;;;;;9.03;7.63;;;25.30;69.20;;;;;;5031786;28;20174;-67
2021/09/22 12:02:49;;;;;;;8.20;7.60;;;25.30;69.20;;;;;;5036263;28;20174;-67
2021/09/22 12:05:20;;;;;;;8.00;7.40;;;25.30;69.40;;;;;;5035713;28;20492;-67
2021/09/22 12:07:51;;;;;;;8.90;8.13;;;25.20;68.60;;;;;;5036351;28;20420;-67
2021/09/22 12:10:17;;;;;;;8.70;7.90;;;25.20;68.20;;;;;;5035547;28;20464;-67
2021/09/22 12:12:43;;;;;;;9.10;8.40;;;25.10;69.80;;;;;;5018579;28;20888;-67
2021/09/22 12:15:10;;;;;;;10.27;9.27;;;25.00;69.90;;;;;;5036289;28;20421;-70
2021/09/22 12:17:38;;;;;;;9.00;8.27;;;24.80;68.60;;;;;;5036046;28;20206;-67
2021/09/22 12:20:13;;;;;;;9.60;8.90;;;24.70;68.80;;;;;;5035711;28;20413;-67
2021/09/22 12:22:41;;;;;;;10.00;9.13;;;24.60;69.80;;;;;;5036179;28;20401;-67
2021/09/22 12:25:09;;;;;;;7.97;7.33;;;24.50;69.70;;;;;;5035926;28;20408;-67
2021/09/22 12:27:36;;;;;;;7.97;7.27;;;24.40;70.30;;;;;;5035766;28;20408;-67
2021/09/22 12:30:04;;;;;;;8.33;7.70;;;24.20;71.60;;;;;;5035725;28;20460;-67
2021/09/22 12:32:34;;;;;;;11.23;8.50;;;24.00;71.20;;;;;;5035077;28;20741;-67
2021/09/22 12:35:07;;;;;;;9.63;8.73;;;23.80;71.40;;;;;;5035637;28;20393;-67
2021/09/22 12:37:34;;;;;;;10.17;9.20;;;23.70;71.30;;;;;;5034812;28;20397;-67
2021/09/22 12:40:03;;;;;;;9.63;8.73;;;23.60;72.00;;;;;;5035693;28;20409;-67